Time;durP1;ratioP1;P1;durP2;ratioP2;P2;SDS_P1;SDS_P2;PMS_P1;PMS_P2;Temp;Humidity;BMP_temperature;BMP_pressure;BME280_temperature;BME280_humidity;BME280_pressure;Samples;Min_cycle;Max_cycle;Signal;HPM_P1;HPM_P2
2023/12/18 00:00:48;;;;;;;9.55;4.47;;;6.50;99.90;;;;;;4163644;28;20099;-75
2023/12/18 00:02:48;;;;;;;7.78;4.07;;;6.50;99.90;;;;;;4157255;28;20037;-75
2023/12/18 00:04:49;;;;;;;8.18;4.15;;;6.50;99.90;;;;;;4152516;28;20360;-75
2023/12/18 00:06:49;;;;;;;8.63;4.45;;;6.40;99.90;;;;;;4154608;28;20403;-74
2023/12/18 00:08:50;;;;;;;9.25;4.35;;;6.40;99.90;;;;;;4156358;28;20617;-75
2023/12/18 00:10:51;;;;;;;7.93;4.15;;;6.40;99.90;;;;;;4157538;28;20426;-75
2023/12/18 00:12:51;;;;;;;9.02;3.80;;;6.40;99.90;;;;;;4145661;28;20046;-74
2023/12/18 00:14:52;;;;;;;8.38;3.95;;;6.40;99.90;;;;;;4156066;28;20462;-75
2023/12/18 00:16:53;;;;;;;7.88;3.58;;;6.30;99.90;;;;;;4156529;28;20490;-75
2023/12/18 00:18:53;;;;;;;6.80;3.60;;;6.40;99.90;;;;;;4157724;28;20040;-75
2023/12/18 00:20:54;;;;;;;8.18;3.60;;;6.30;99.90;;;;;;4161531;28;20485;-75
2023/12/18 00:22:54;;;;;;;8.18;3.92;;;6.30;99.90;;;;;;4162262;28;20513;-75
2023/12/18 00:24:55;;;;;;;6.30;3.38;;;6.30;99.90;;;;;;4160185;28;20037;-75
2023/12/18 00:26:55;;;;;;;10.75;3.80;;;6.30;99.90;;;;;;4155462;28;20478;-75
2023/12/18 00:28:56;;;;;;;7.90;4.03;;;6.30;99.90;;;;;;4164311;28;20095;-75
2023/12/18 00:30:56;;;;;;;8.57;3.45;;;6.30;99.90;;;;;;4154474;28;20423;-75
2023/12/18 00:32:57;;;;;;;6.40;3.55;;;6.30;99.90;;;;;;4154204;28;20029;-75
2023/12/18 00:34:58;;;;;;;5.20;3.10;;;6.30;99.90;;;;;;4154593;28;20033;-75
2023/12/18 00:36:58;;;;;;;10.25;3.75;;;6.30;99.90;;;;;;4162238;28;20041;-75
2023/12/18 00:38:59;;;;;;;7.30;3.50;;;6.30;99.90;;;;;;4157609;28;20457;-75
2023/12/18 00:41:00;;;;;;;6.35;3.60;;;6.30;99.90;;;;;;4161334;28;20408;-74
2023/12/18 00:43:01;;;;;;;8.57;3.67;;;6.30;99.90;;;;;;4157509;28;20032;-75
2023/12/18 00:45:01;;;;;;;6.38;3.35;;;6.20;99.90;;;;;;4156122;28;20026;-75
2023/12/18 00:47:02;;;;;;;8.15;3.78;;;6.30;99.90;;;;;;4160263;28;20116;-75
2023/12/18 00:49:03;;;;;;;7.53;3.50;;;6.20;99.90;;;;;;4156418;28;20037;-75
2023/12/18 00:51:04;;;;;;;11.50;3.53;;;6.30;99.90;;;;;;4155085;28;20041;-75
2023/12/18 00:53:04;;;;;;;8.77;3.58;;;6.20;99.90;;;;;;4151659;28;20108;-75
2023/12/18 00:55:06;;;;;;;5.95;3.00;;;6.20;99.90;;;;;;4153228;28;20091;-75
2023/12/18 00:57:07;;;;;;;9.30;4.00;;;6.30;99.90;;;;;;4163074;28;20033;-75
2023/12/18 00:59:07;;;;;;;8.18;3.63;;;6.20;99.90;;;;;;4159022;28;20534;-75
2023/12/18 01:01:08;;;;;;;10.20;3.65;;;6.20;99.90;;;;;;4157120;28;20438;-75
2023/12/18 01:03:08;;;;;;;8.07;3.90;;;6.30;99.90;;;;;;4138947;28;20452;-75
2023/12/18 01:05:09;;;;;;;10.07;4.10;;;6.20;99.90;;;;;;4154413;28;20042;-75
2023/12/18 01:07:10;;;;;;;9.10;3.95;;;6.30;99.90;;;;;;4163325;28;20049;-75
2023/12/18 01:09:12;;;;;;;9.10;4.30;;;6.30;99.90;;;;;;4149772;28;20049;-74
2023/12/18 01:11:13;;;;;;;;;;;6.30;99.90;;;;;;4151562;28;20033;-75
2023/12/18 01:13:13;;;;;;;10.60;4.30;;;6.30;99.90;;;;;;4157204;28;20377;-75
2023/12/18 01:15:14;;;;;;;11.73;4.53;;;6.30;99.90;;;;;;4158969;28;20033;-75
2023/12/18 01:17:15;;;;;;;10.25;4.22;;;6.30;99.90;;;;;;4166430;28;20041;-75
2023/12/18 01:19:15;;;;;;;13.80;4.80;;;6.30;99.90;;;;;;4158595;28;20928;-75
2023/12/18 01:21:16;;;;;;;11.15;4.75;;;6.20;99.90;;;;;;4163190;28;20376;-75
2023/12/18 01:23:16;;;;;;;13.43;5.10;;;6.20;99.90;;;;;;4144993;28;20412;-75
2023/12/18 01:25:17;;;;;;;15.10;4.63;;;6.30;99.90;;;;;;4172976;28;20037;-74
2023/12/18 01:27:18;;;;;;;8.15;4.13;;;6.20;99.90;;;;;;4165441;28;20410;-75
2023/12/18 01:29:18;;;;;;;6.68;3.90;;;6.30;99.90;;;;;;4163481;28;20032;-75
2023/12/18 01:31:25;;;;;;;10.35;4.68;;;6.30;99.90;;;;;;4164267;28;20486;-75
2023/12/18 01:33:25;;;;;;;8.85;4.05;;;6.30;99.90;;;;;;4166623;28;20033;-75
2023/12/18 01:35:26;;;;;;;11.35;4.70;;;6.30;99.90;;;;;;4161668;28;20033;-75
2023/12/18 01:37:26;;;;;;;9.85;4.78;;;6.30;99.90;;;;;;4165602;28;20034;-75
2023/12/18 01:39:28;;;;;;;6.32;4.18;;;6.40;99.90;;;;;;4165040;28;20048;-75
2023/12/18 01:41:28;;;;;;;11.73;5.40;;;6.40;99.90;;;;;;4165552;28;20483;-75
2023/12/18 01:43:29;;;;;;;12.63;5.07;;;6.40;99.90;;;;;;4160682;28;20030;-75
2023/12/18 01:45:29;;;;;;;9.55;4.30;;;6.40;99.90;;;;;;4167362;28;20040;-75
2023/12/18 01:47:30;;;;;;;8.40;4.30;;;6.40;99.90;;;;;;4158489;28;20052;-75
2023/12/18 01:49:31;;;;;;;9.27;4.30;;;6.40;99.90;;;;;;4161385;28;20039;-75
2023/12/18 01:51:32;;;;;;;12.50;4.88;;;6.40;99.90;;;;;;4162557;28;20132;-75
2023/12/18 01:53:38;;;;;;;8.23;4.20;;;6.40;99.90;;;;;;4164668;28;20033;-75
2023/12/18 01:55:39;;;;;;;10.68;4.15;;;6.50;99.90;;;;;;4170064;28;20118;-75
2023/12/18 01:57:40;;;;;;;12.18;4.47;;;6.50;99.90;;;;;;4173840;28;20474;-76
2023/12/18 01:59:42;;;;;;;8.68;4.60;;;6.50;99.90;;;;;;4169064;28;20046;-76
2023/12/18 02:01:43;;;;;;;11.05;5.20;;;6.50;99.90;;;;;;4171349;28;20064;-75
2023/12/18 02:03:45;;;;;;;10.63;4.50;;;6.50;99.90;;;;;;4167177;28;20041;-75
2023/12/18 02:05:46;;;;;;;10.50;4.82;;;6.50;99.90;;;;;;4166680;28;20115;-75
2023/12/18 02:07:48;;;;;;;10.05;4.80;;;6.60;99.90;;;;;;4173476;28;20063;-75
2023/12/18 02:09:49;;;;;;;8.07;4.82;;;6.60;99.90;;;;;;4143564;28;20068;-75
2023/12/18 02:11:49;;;;;;;12.00;4.63;;;6.50;99.90;;;;;;4172868;28;20029;-76
2023/12/18 02:13:50;;;;;;;13.23;5.07;;;6.60;99.90;;;;;;4166720;28;20676;-76
2023/12/18 02:15:51;;;;;;;9.55;5.00;;;6.60;99.90;;;;;;4165269;28;20095;-76
2023/12/18 02:17:51;;;;;;;11.95;5.00;;;6.60;99.90;;;;;;4168186;28;20044;-75
2023/12/18 02:20:07;;;;;;;10.20;4.78;;;6.60;99.90;;;;;;4169142;28;20056;-75
2023/12/18 02:22:07;;;;;;;10.40;4.55;;;6.60;99.90;;;;;;4168099;28;20030;-76
2023/12/18 02:24:08;;;;;;;8.35;4.75;;;6.60;99.90;;;;;;4162533;28;20437;-76
2023/12/18 02:26:10;;;;;;;11.82;5.10;;;6.60;99.90;;;;;;4164740;28;20797;-74
2023/12/18 02:28:11;;;;;;;10.10;5.40;;;6.60;99.90;;;;;;4161451;28;20475;-76
2023/12/18 02:30:16;;;;;;;11.15;5.68;;;6.70;99.90;;;;;;4169224;28;20037;-76
2023/12/18 02:32:17;;;;;;;14.77;4.97;;;6.60;99.90;;;;;;4168229;28;20036;-76
2023/12/18 02:34:18;;;;;;;11.75;5.18;;;6.60;99.90;;;;;;4168137;28;20047;-76
2023/12/18 02:36:18;;;;;;;15.30;5.35;;;6.60;99.90;;;;;;4163541;28;20034;-75
2023/12/18 02:38:19;;;;;;;13.75;5.40;;;6.70;99.90;;;;;;4165876;28;20107;-76
2023/12/18 02:40:20;;;;;;;12.82;5.95;;;6.60;99.90;;;;;;4164512;28;20106;-76
2023/12/18 02:42:21;;;;;;;12.67;5.90;;;6.60;99.90;;;;;;4162882;28;20038;-75
2023/12/18 02:44:22;;;;;;;15.43;6.45;;;6.60;99.90;;;;;;4166688;28;21012;-75
2023/12/18 02:46:22;;;;;;;13.35;6.43;;;6.50;99.90;;;;;;4146470;28;20541;-76
2023/12/18 02:48:23;;;;;;;17.75;8.68;;;6.50;99.90;;;;;;4163125;28;20050;-76
2023/12/18 02:50:23;;;;;;;21.17;8.00;;;6.50;99.90;;;;;;4162093;28;20046;-76
2023/12/18 02:52:24;;;;;;;15.02;7.40;;;6.50;99.90;;;;;;4165609;28;20517;-76
2023/12/18 02:54:25;;;;;;;18.52;7.88;;;6.50;99.90;;;;;;4164778;28;20029;-76
2023/12/18 02:56:26;;;;;;;15.52;7.93;;;6.50;99.90;;;;;;4166624;28;20036;-76
2023/12/18 02:58:26;;;;;;;15.35;7.93;;;6.50;99.90;;;;;;4167377;28;20560;-76
2023/12/18 03:00:27;;;;;;;12.23;7.32;;;6.50;99.90;;;;;;4161101;28;20060;-76
2023/12/18 03:02:27;;;;;;;16.45;7.55;;;6.50;99.90;;;;;;4161390;28;20427;-76
2023/12/18 03:04:28;;;;;;;15.18;7.68;;;6.60;99.90;;;;;;4173788;28;20410;-76
2023/12/18 03:06:28;;;;;;;13.60;7.78;;;6.50;99.90;;;;;;4157701;28;20554;-75
2023/12/18 03:08:29;;;;;;;17.98;8.90;;;6.50;99.90;;;;;;4147673;28;20037;-75
2023/12/18 03:10:30;;;;;;;16.98;8.88;;;6.50;99.90;;;;;;4165334;28;20125;-76
2023/12/18 03:12:30;;;;;;;12.10;7.82;;;6.60;99.90;;;;;;4162884;28;20462;-75
2023/12/18 03:14:31;;;;;;;17.45;8.77;;;6.60;99.90;;;;;;4159179;28;20545;-76
2023/12/18 03:16:31;;;;;;;17.35;9.07;;;6.60;99.90;;;;;;4167867;28;20022;-75
2023/12/18 03:18:32;;;;;;;19.42;9.95;;;6.60;99.90;;;;;;4160528;28;20084;-76
2023/12/18 03:20:33;;;;;;;21.50;10.23;;;6.50;99.90;;;;;;4163935;28;20036;-75
2023/12/18 03:22:33;;;;;;;20.10;10.13;;;6.50;99.90;;;;;;4165340;28;20485;-75
2023/12/18 03:24:34;;;;;;;19.38;9.80;;;6.50;99.90;;;;;;4165182;28;20072;-76
2023/12/18 03:26:34;;;;;;;21.85;9.57;;;6.40;99.90;;;;;;4171739;28;20499;-75
2023/12/18 03:28:35;;;;;;;18.33;10.05;;;6.50;99.90;;;;;;4164905;28;20510;-76
2023/12/18 03:30:35;;;;;;;22.50;11.55;;;6.50;99.90;;;;;;4163555;28;20436;-76
2023/12/18 03:32:36;;;;;;;18.60;11.38;;;6.40;99.90;;;;;;4164863;28;20025;-76
2023/12/18 03:34:36;;;;;;;19.92;10.05;;;6.50;99.90;;;;;;4163261;28;20117;-76
2023/12/18 03:36:37;;;;;;;20.90;10.48;;;6.40;99.90;;;;;;4168717;28;20479;-76
2023/12/18 03:38:38;;;;;;;22.17;11.60;;;6.40;99.90;;;;;;4161529;28;20037;-76
2023/12/18 03:40:38;;;;;;;22.05;11.32;;;6.40;99.90;;;;;;4170536;28;20550;-76
2023/12/18 03:42:40;;;;;;;21.65;11.38;;;6.40;99.90;;;;;;4170959;28;20436;-76
2023/12/18 03:44:42;;;;;;;20.33;10.85;;;6.40;99.90;;;;;;4162130;28;20036;-76
2023/12/18 03:46:43;;;;;;;28.85;12.43;;;6.40;99.90;;;;;;4160186;28;20033;-76
2023/12/18 03:48:43;;;;;;;22.38;11.95;;;6.40;99.90;;;;;;4165936;28;20041;-76
2023/12/18 03:50:44;;;;;;;23.42;11.68;;;6.30;99.90;;;;;;4163537;28;20531;-76
2023/12/18 03:52:45;;;;;;;21.48;11.88;;;6.40;99.90;;;;;;4162245;28;20033;-75
2023/12/18 03:54:45;;;;;;;21.70;11.50;;;6.40;99.90;;;;;;4166260;28;20021;-76
2023/12/18 03:56:46;;;;;;;20.52;11.55;;;6.40;99.90;;;;;;4165481;28;20092;-76
2023/12/18 03:58:46;;;;;;;22.95;11.55;;;6.40;99.90;;;;;;4167189;28;20057;-74
2023/12/18 04:00:48;;;;;;;20.50;11.63;;;6.40;99.90;;;;;;4143467;28;20076;-76
2023/12/18 04:02:48;;;;;;;22.30;11.10;;;6.40;99.90;;;;;;4162008;28;20037;-76
2023/12/18 04:04:50;;;;;;;22.90;10.65;;;6.40;99.90;;;;;;4165026;28;20026;-75
2023/12/18 04:06:51;;;;;;;28.30;13.07;;;6.40;99.90;;;;;;4162196;28;20021;-75
2023/12/18 04:08:51;;;;;;;23.67;11.50;;;6.40;99.90;;;;;;4165857;28;20657;-76
2023/12/18 04:10:52;;;;;;;22.77;11.65;;;6.40;99.90;;;;;;4162151;28;20399;-76
2023/12/18 04:12:53;;;;;;;19.70;11.70;;;6.40;99.90;;;;;;4163194;28;20108;-76
2023/12/18 04:14:54;;;;;;;19.17;11.63;;;6.40;99.90;;;;;;4169117;28;20030;-76
2023/12/18 04:16:54;;;;;;;19.45;10.73;;;6.40;99.90;;;;;;4163348;28;20025;-76
2023/12/18 04:18:56;;;;;;;22.73;11.68;;;6.40;99.90;;;;;;4160980;28;20111;-76
2023/12/18 04:20:56;;;;;;;24.75;12.57;;;6.40;99.90;;;;;;4163383;28;20207;-76
2023/12/18 04:22:57;;;;;;;25.88;13.27;;;6.40;99.90;;;;;;4164543;28;20033;-76
2023/12/18 04:24:58;;;;;;;27.65;12.63;;;6.40;99.90;;;;;;4170028;28;20049;-76
2023/12/18 04:26:58;;;;;;;28.40;13.68;;;6.40;99.90;;;;;;4169329;28;20403;-75
2023/12/18 04:28:59;;;;;;;23.92;13.15;;;6.30;99.90;;;;;;4165852;28;20037;-76
2023/12/18 04:31:00;;;;;;;22.15;12.30;;;6.30;99.90;;;;;;4162638;28;20087;-75
2023/12/18 04:33:01;;;;;;;24.35;12.23;;;6.40;99.90;;;;;;4161423;28;20040;-76
2023/12/18 04:35:02;;;;;;;26.75;12.20;;;6.40;99.90;;;;;;4167478;28;20025;-76
2023/12/18 04:37:03;;;;;;;25.02;13.05;;;6.40;99.90;;;;;;4163161;28;20033;-75
2023/12/18 04:39:03;;;;;;;22.98;11.70;;;6.30;99.90;;;;;;4141310;28;20040;-76
2023/12/18 04:41:04;;;;;;;24.70;12.80;;;6.30;99.90;;;;;;4156014;28;20041;-76
2023/12/18 04:43:04;;;;;;;18.60;11.38;;;6.40;99.90;;;;;;4154317;28;20038;-76
2023/12/18 04:45:06;;;;;;;17.85;10.77;;;6.40;99.90;;;;;;4166746;28;20494;-76
2023/12/18 04:47:06;;;;;;;22.58;11.57;;;6.30;99.90;;;;;;4167840;28;20033;-76
2023/12/18 04:49:09;;;;;;;22.60;11.23;;;6.30;99.90;;;;;;4162668;28;20025;-76
2023/12/18 04:51:09;;;;;;;21.02;11.05;;;6.30;99.90;;;;;;4159802;28;20126;-75
2023/12/18 04:53:10;;;;;;;28.02;12.93;;;6.40;99.90;;;;;;4160847;28;20030;-77
2023/12/18 04:55:10;;;;;;;23.65;11.48;;;6.40;99.90;;;;;;4159985;28;20032;-76
2023/12/18 04:57:11;;;;;;;20.38;11.55;;;6.30;99.90;;;;;;4171336;28;20465;-76
2023/12/18 04:59:13;;;;;;;20.35;11.10;;;6.40;99.90;;;;;;4165049;28;20067;-76
2023/12/18 05:01:14;;;;;;;22.85;11.25;;;6.40;99.90;;;;;;4163606;28;20505;-76
2023/12/18 05:03:15;;;;;;;20.30;11.68;;;6.40;99.90;;;;;;4162940;28;20041;-77
2023/12/18 05:05:15;;;;;;;24.52;12.70;;;6.30;99.90;;;;;;4166310;28;20088;-76
2023/12/18 05:07:16;;;;;;;26.33;12.07;;;6.30;99.90;;;;;;4163751;28;20378;-76
2023/12/18 05:09:17;;;;;;;22.48;11.32;;;6.30;99.90;;;;;;4168920;28;20041;-76
2023/12/18 05:11:19;;;;;;;24.20;12.38;;;6.30;99.90;;;;;;4150463;28;20033;-76
2023/12/18 05:13:20;;;;;;;21.10;11.43;;;6.40;99.90;;;;;;4155856;28;20041;-74
2023/12/18 05:15:21;;;;;;;24.17;12.88;;;6.30;99.90;;;;;;4155432;28;20045;-76
2023/12/18 05:17:21;;;;;;;24.25;12.57;;;6.40;99.90;;;;;;4160585;28;20048;-75
2023/12/18 05:19:23;;;;;;;25.23;11.63;;;6.30;99.90;;;;;;4151693;28;20048;-75
2023/12/18 05:21:24;;;;;;;23.13;12.60;;;6.30;99.90;;;;;;4154643;28;20144;-77
2023/12/18 05:23:25;;;;;;;22.77;11.75;;;6.30;99.90;;;;;;4155511;28;20113;-76
2023/12/18 05:25:25;;;;;;;23.98;11.77;;;6.30;99.90;;;;;;4155567;28;20502;-76
2023/12/18 05:27:26;;;;;;;20.70;11.88;;;6.30;99.90;;;;;;4155380;28;20414;-75
2023/12/18 05:29:26;;;;;;;28.75;13.25;;;6.30;99.90;;;;;;4165724;28;20112;-75
2023/12/18 05:31:27;;;;;;;28.63;12.88;;;6.30;99.90;;;;;;4154830;28;20045;-75
2023/12/18 05:33:28;;;;;;;21.73;12.00;;;6.30;99.90;;;;;;4156457;28;20446;-76
2023/12/18 05:35:28;;;;;;;18.58;11.05;;;6.30;99.90;;;;;;4152662;28;20029;-75
2023/12/18 05:37:29;;;;;;;24.15;12.50;;;6.30;99.90;;;;;;4156671;28;20510;-76
2023/12/18 05:39:29;;;;;;;25.05;12.27;;;6.20;99.90;;;;;;4159717;28;20037;-76
2023/12/18 05:41:30;;;;;;;20.42;10.75;;;6.30;99.90;;;;;;4153816;28;20124;-75
2023/12/18 05:43:31;;;;;;;19.75;11.10;;;6.30;99.90;;;;;;4158437;28;20383;-74
2023/12/18 05:45:32;;;;;;;20.75;11.15;;;6.30;99.90;;;;;;4165314;28;20088;-73
2023/12/18 05:47:33;;;;;;;25.52;13.20;;;6.30;99.90;;;;;;4165790;28;20040;-73
2023/12/18 05:49:33;;;;;;;19.13;10.95;;;6.30;99.90;;;;;;4157361;28;20130;-74
2023/12/18 05:51:34;;;;;;;22.40;11.82;;;6.30;99.90;;;;;;4161441;28;20103;-74
2023/12/18 05:53:34;;;;;;;25.02;11.85;;;6.30;99.90;;;;;;4158022;28;20037;-73
2023/12/18 05:55:35;;;;;;;23.88;11.95;;;6.30;99.90;;;;;;4151117;28;20109;-74
2023/12/18 05:57:36;;;;;;;23.30;11.90;;;6.30;99.90;;;;;;4152570;28;20038;-73
2023/12/18 05:59:37;;;;;;;25.73;13.05;;;6.30;99.90;;;;;;4160693;28;20033;-73
2023/12/18 06:01:38;;;;;;;29.15;12.20;;;6.30;99.90;;;;;;4159389;28;20113;-73
2023/12/18 06:03:38;;;;;;;26.02;12.50;;;6.30;99.90;;;;;;4163171;28;20044;-73
2023/12/18 06:05:39;;;;;;;23.92;11.85;;;6.20;99.90;;;;;;4167829;28;20033;-73
2023/12/18 06:07:41;;;;;;;22.42;11.70;;;6.30;99.90;;;;;;4158923;28;20049;-73
2023/12/18 06:09:41;;;;;;;26.08;12.80;;;6.30;99.90;;;;;;4162047;28;20119;-74
2023/12/18 06:11:42;;;;;;;28.10;13.18;;;6.30;99.90;;;;;;4158708;28;20445;-73
2023/12/18 06:13:43;;;;;;;25.95;13.23;;;6.20;99.90;;;;;;4156086;28;20033;-73
2023/12/18 06:15:43;;;;;;;25.08;11.85;;;6.30;99.90;;;;;;4161143;28;20565;-73
2023/12/18 06:17:44;;;;;;;27.88;13.27;;;6.30;99.90;;;;;;4160249;28;20132;-73
2023/12/18 06:19:44;;;;;;;23.30;11.48;;;6.30;99.90;;;;;;4162546;28;20064;-73
2023/12/18 06:21:45;;;;;;;24.35;12.93;;;6.30;99.90;;;;;;4160899;28;20033;-74
2023/12/18 06:23:46;;;;;;;26.63;12.70;;;6.20;99.90;;;;;;4152082;28;20457;-73
2023/12/18 06:25:46;;;;;;;25.80;12.98;;;6.30;99.90;;;;;;4151803;28;20044;-74
2023/12/18 06:27:47;;;;;;;21.75;12.35;;;6.30;99.90;;;;;;4160449;28;20033;-74
2023/12/18 06:29:47;;;;;;;24.15;12.20;;;6.30;99.90;;;;;;4154303;28;20080;-73
2023/12/18 06:31:48;;;;;;;25.77;12.73;;;6.30;99.90;;;;;;4162378;28;20059;-73
2023/12/18 06:33:48;;;;;;;24.60;13.80;;;6.30;99.90;;;;;;4163358;28;20033;-73
2023/12/18 06:35:49;;;;;;;24.38;12.63;;;6.30;99.90;;;;;;4152441;28;20151;-73
2023/12/18 06:37:50;;;;;;;22.67;12.35;;;6.30;99.90;;;;;;4157003;28;20042;-73
2023/12/18 06:39:50;;;;;;;28.65;13.38;;;6.30;99.90;;;;;;4154866;28;20525;-74
2023/12/18 06:41:51;;;;;;;28.88;13.07;;;6.30;99.90;;;;;;4161919;28;20520;-73
2023/12/18 06:43:51;;;;;;;25.65;12.70;;;6.30;99.90;;;;;;4154609;28;20407;-73
2023/12/18 06:45:52;;;;;;;26.58;13.13;;;6.30;99.90;;;;;;4158789;28;20045;-74
2023/12/18 06:47:52;;;;;;;23.33;12.15;;;6.30;99.90;;;;;;4158826;28;20057;-74
2023/12/18 06:49:53;;;;;;;26.73;13.00;;;6.20;99.90;;;;;;4158348;28;20033;-73
2023/12/18 06:51:54;;;;;;;27.77;12.55;;;6.30;99.90;;;;;;4154690;28;20041;-74
2023/12/18 06:53:54;;;;;;;23.38;12.82;;;6.30;99.90;;;;;;4152470;28;20071;-75
2023/12/18 06:55:55;;;;;;;26.00;13.07;;;6.30;99.90;;;;;;4150127;28;20513;-75
2023/12/18 06:57:56;;;;;;;28.23;13.55;;;6.30;99.90;;;;;;4157614;28;20033;-75
2023/12/18 06:59:56;;;;;;;24.55;12.95;;;6.30;99.90;;;;;;4157033;28;20108;-74
2023/12/18 07:01:57;;;;;;;30.80;14.73;;;6.30;99.90;;;;;;4153635;28;20125;-75
2023/12/18 07:03:58;;;;;;;24.52;12.68;;;6.30;99.90;;;;;;4160809;28;20030;-75
2023/12/18 07:05:58;;;;;;;24.08;12.20;;;6.20;99.90;;;;;;4157730;28;20038;-75
2023/12/18 07:07:59;;;;;;;27.85;12.98;;;6.30;99.90;;;;;;4159478;28;20375;-75
2023/12/18 07:09:59;;;;;;;28.48;13.88;;;6.30;99.90;;;;;;4155735;28;20032;-75
2023/12/18 07:12:00;;;;;;;22.98;12.50;;;6.30;99.90;;;;;;4153930;28;20029;-75
2023/12/18 07:14:01;;;;;;;28.75;13.77;;;6.30;99.90;;;;;;4156318;28;20062;-75
2023/12/18 07:16:01;;;;;;;23.85;13.30;;;6.30;99.90;;;;;;4155823;28;20430;-75
2023/12/18 07:18:03;;;;;;;25.55;14.10;;;6.30;99.90;;;;;;4154894;28;20045;-74
2023/12/18 07:20:05;;;;;;;24.80;12.88;;;6.30;99.90;;;;;;4157719;28;20060;-74
2023/12/18 07:22:06;;;;;;;;;;;6.30;99.90;;;;;;4155080;28;20049;-74
2023/12/18 07:24:07;;;;;;;29.50;13.82;;;6.30;99.90;;;;;;4162112;28;19932;-75
2023/12/18 07:26:11;;;;;;;28.00;14.43;;;6.30;99.90;;;;;;4154831;28;20041;-74
2023/12/18 07:28:12;;;;;;;28.80;14.45;;;6.30;99.90;;;;;;4156954;28;20048;-75
2023/12/18 07:30:13;;;;;;;27.70;14.90;;;6.30;99.90;;;;;;4157569;28;20034;-75
2023/12/18 07:32:14;;;;;;;24.02;13.27;;;6.20;99.90;;;;;;4153123;28;20042;-75
2023/12/18 07:34:14;;;;;;;31.67;14.90;;;6.30;99.90;;;;;;4156312;28;21437;-75
2023/12/18 07:36:15;;;;;;;30.27;15.98;;;6.30;99.90;;;;;;4139766;28;20034;-75
2023/12/18 07:38:15;;;;;;;24.17;13.32;;;6.20;99.90;;;;;;4156400;28;20045;-75
2023/12/18 07:40:16;;;;;;;26.92;14.43;;;6.20;99.90;;;;;;4161424;28;20118;-75
2023/12/18 07:42:16;;;;;;;27.45;13.75;;;6.20;99.90;;;;;;4174678;28;20044;-75
2023/12/18 07:44:17;;;;;;;29.25;14.10;;;6.20;99.90;;;;;;4151506;28;20034;-75
2023/12/18 07:46:18;;;;;;;23.60;12.80;;;6.30;99.90;;;;;;4154488;28;20502;-75
2023/12/18 07:48:21;;;;;;;25.45;13.27;;;6.30;99.90;;;;;;4152602;28;20064;-75
2023/12/18 07:50:22;;;;;;;27.92;14.45;;;6.30;99.90;;;;;;4151551;28;20680;-75
2023/12/18 07:52:22;;;;;;;26.45;13.63;;;6.20;99.90;;;;;;4148344;28;22688;-75
2023/12/18 07:54:23;;;;;;;31.42;15.35;;;6.20;99.90;;;;;;4155559;28;20490;-75
2023/12/18 07:56:23;;;;;;;27.25;14.90;;;6.20;99.90;;;;;;4158130;28;20037;-75
2023/12/18 07:58:24;;;;;;;30.63;13.50;;;6.20;99.90;;;;;;4157205;28;20045;-75
2023/12/18 08:00:25;;;;;;;28.80;14.10;;;6.20;99.90;;;;;;4157643;28;20818;-75
2023/12/18 08:02:25;;;;;;;29.75;14.35;;;6.20;99.90;;;;;;4157130;28;20042;-75
2023/12/18 08:04:26;;;;;;;27.40;13.85;;;6.10;99.90;;;;;;4159955;28;20517;-74
2023/12/18 08:06:26;;;;;;;27.67;14.55;;;6.20;99.90;;;;;;4156721;28;20025;-74
2023/12/18 08:08:27;;;;;;;28.48;15.25;;;6.20;99.90;;;;;;4165784;28;20060;-75
2023/12/18 08:10:28;;;;;;;28.23;15.05;;;6.20;99.90;;;;;;4172839;28;20040;-75
2023/12/18 08:12:28;;;;;;;28.58;14.85;;;6.20;99.90;;;;;;4166029;28;20112;-75
2023/12/18 08:14:29;;;;;;;31.45;15.10;;;6.20;99.90;;;;;;4157286;28;20025;-75
2023/12/18 08:16:30;;;;;;;31.77;15.25;;;6.20;99.90;;;;;;4152499;28;20041;-75
2023/12/18 08:18:31;;;;;;;31.20;15.30;;;6.10;99.90;;;;;;4158519;28;20160;-74
2023/12/18 08:20:32;;;;;;;26.65;14.07;;;6.10;99.90;;;;;;4156339;28;20067;-75
2023/12/18 08:22:34;;;;;;;26.40;14.43;;;6.10;99.90;;;;;;4155820;28;20040;-75
2023/12/18 08:24:35;;;;;;;28.15;14.50;;;6.10;99.90;;;;;;4155913;28;20030;-74
2023/12/18 08:26:35;;;;;;;27.88;14.77;;;6.10;99.90;;;;;;4170990;28;20036;-75
2023/12/18 08:28:37;;;;;;;27.90;13.82;;;6.20;99.90;;;;;;4140993;28;20053;-75
2023/12/18 08:30:37;;;;;;;26.15;13.43;;;6.20;99.90;;;;;;4157239;28;20379;-75
2023/12/18 08:32:39;;;;;;;31.05;14.25;;;6.20;99.90;;;;;;4161272;28;20044;-75
2023/12/18 08:34:39;;;;;;;23.63;13.23;;;6.20;99.90;;;;;;4166550;28;20173;-75
2023/12/18 08:36:40;;;;;;;25.85;14.52;;;6.20;99.90;;;;;;4154297;28;20112;-75
2023/12/18 08:38:41;;;;;;;27.58;14.93;;;6.20;99.90;;;;;;4154748;28;20432;-75
2023/12/18 08:40:41;;;;;;;32.78;15.40;;;6.20;99.90;;;;;;4164487;28;20044;-74
2023/12/18 08:42:42;;;;;;;27.23;14.70;;;6.20;99.90;;;;;;4169121;28;20049;-74
2023/12/18 08:44:43;;;;;;;27.30;14.43;;;6.20;99.90;;;;;;4158313;28;20021;-74
2023/12/18 08:46:43;;;;;;;26.63;13.57;;;6.20;99.90;;;;;;4155013;28;20033;-74
2023/12/18 08:48:44;;;;;;;31.92;14.88;;;6.20;99.90;;;;;;4158472;28;20040;-74
2023/12/18 08:50:44;;;;;;;27.45;14.55;;;6.20;99.90;;;;;;4155890;28;20026;-74
2023/12/18 08:52:45;;;;;;;26.13;13.55;;;6.20;99.90;;;;;;4158830;28;20025;-74
2023/12/18 08:54:45;;;;;;;27.25;13.90;;;6.20;99.90;;;;;;4158300;28;20068;-74
2023/12/18 08:56:47;;;;;;;24.05;12.85;;;6.20;99.90;;;;;;4153706;28;20493;-74
2023/12/18 08:58:49;;;;;;;24.75;13.93;;;6.20;99.90;;;;;;4157320;28;20021;-74
2023/12/18 09:00:50;;;;;;;26.88;13.85;;;6.20;99.90;;;;;;4155079;28;20038;-74
2023/12/18 09:02:50;;;;;;;29.15;14.90;;;6.20;99.90;;;;;;4158915;28;20028;-74
2023/12/18 09:04:51;;;;;;;27.55;14.13;;;6.20;99.90;;;;;;4161082;28;20069;-74
2023/12/18 09:06:52;;;;;;;29.02;14.60;;;6.20;99.90;;;;;;4153329;28;20029;-74
2023/12/18 09:08:52;;;;;;;31.80;14.38;;;6.20;99.90;;;;;;4159394;28;20375;-74
2023/12/18 09:10:53;;;;;;;35.00;15.63;;;6.10;99.90;;;;;;4164527;28;20029;-74
2023/12/18 09:12:54;;;;;;;25.90;13.45;;;6.10;99.90;;;;;;4158295;28;20026;-74
2023/12/18 09:14:54;;;;;;;25.83;13.77;;;6.10;99.90;;;;;;4168027;28;20041;-74
2023/12/18 09:16:55;;;;;;;29.75;14.73;;;6.10;99.90;;;;;;4154446;28;20033;-74
2023/12/18 09:18:56;;;;;;;29.42;14.77;;;6.10;99.90;;;;;;4164440;28;20053;-74
2023/12/18 09:20:56;;;;;;;23.45;13.13;;;6.10;99.90;;;;;;4159580;28;20034;-74
2023/12/18 09:22:57;;;;;;;26.63;13.65;;;6.10;99.90;;;;;;4163793;28;20104;-74
2023/12/18 09:24:57;;;;;;;25.30;13.32;;;6.20;99.90;;;;;;4161062;28;20390;-74
2023/12/18 09:26:58;;;;;;;30.25;15.38;;;6.20;99.90;;;;;;4159785;28;20045;-74
2023/12/18 09:28:59;;;;;;;28.75;14.27;;;6.20;99.90;;;;;;4169326;28;20040;-74
2023/12/18 09:31:00;;;;;;;24.00;13.35;;;6.20;99.90;;;;;;4157744;28;20030;-74
2023/12/18 09:33:00;;;;;;;23.27;12.30;;;6.10;99.90;;;;;;4162027;28;20114;-74
2023/12/18 09:35:01;;;;;;;24.38;13.85;;;6.20;99.90;;;;;;4160581;28;20092;-74
2023/12/18 09:37:02;;;;;;;28.70;14.98;;;6.10;99.90;;;;;;4158979;28;20511;-74
2023/12/18 09:39:03;;;;;;;23.45;13.23;;;6.20;99.90;;;;;;4165041;28;20822;-74
2023/12/18 09:41:03;;;;;;;23.50;13.15;;;6.20;99.90;;;;;;4140653;28;20044;-74
2023/12/18 09:43:04;;;;;;;25.80;13.23;;;6.20;99.90;;;;;;4156513;28;20435;-74
2023/12/18 09:45:07;;;;;;;26.27;13.65;;;6.20;99.90;;;;;;4154369;28;20030;-74
2023/12/18 09:47:07;;;;;;;20.33;12.48;;;6.20;99.90;;;;;;4154268;28;20041;-74
2023/12/18 09:49:09;;;;;;;26.10;13.35;;;6.20;99.90;;;;;;4158663;28;20371;-74
2023/12/18 09:51:16;;;;;;;26.38;12.88;;;6.20;99.90;;;;;;4153117;28;20043;-74
2023/12/18 09:53:20;;;;;;;22.73;13.20;;;6.20;99.90;;;;;;4164018;28;20045;-74
2023/12/18 09:55:21;;;;;;;22.75;13.02;;;6.20;99.90;;;;;;4167402;28;20079;-74
2023/12/18 09:57:24;;;;;;;23.15;12.05;;;6.20;99.90;;;;;;4170602;28;20124;-74
2023/12/18 09:59:25;;;;;;;24.20;12.95;;;6.30;99.90;;;;;;4157134;28;20042;-74
2023/12/18 10:01:25;;;;;;;25.60;13.48;;;6.20;99.90;;;;;;4155910;28;20044;-74
2023/12/18 10:03:26;;;;;;;22.67;13.00;;;6.20;99.90;;;;;;4172395;28;20036;-74
2023/12/18 10:05:27;;;;;;;22.77;12.68;;;6.20;99.90;;;;;;4163972;28;20033;-74
2023/12/18 10:07:27;;;;;;;22.65;13.00;;;6.20;99.90;;;;;;4154907;28;20022;-74
2023/12/18 10:09:34;;;;;;;27.00;13.88;;;6.20;99.90;;;;;;4161643;28;20125;-74
2023/12/18 10:11:35;;;;;;;24.35;13.65;;;6.20;99.90;;;;;;4158218;28;20025;-74
2023/12/18 10:13:36;;;;;;;20.48;12.63;;;6.30;99.90;;;;;;4159883;28;20037;-74
2023/12/18 10:15:38;;;;;;;31.25;14.35;;;6.30;99.90;;;;;;4160448;28;20033;-74
2023/12/18 10:17:39;;;;;;;23.73;13.32;;;6.30;99.90;;;;;;4161523;28;20126;-74
2023/12/18 10:19:43;;;;;;;23.30;13.80;;;6.30;99.90;;;;;;4160413;28;20487;-74
2023/12/18 10:21:44;;;;;;;28.10;13.32;;;6.30;99.90;;;;;;4157751;28;20034;-74
2023/12/18 10:23:44;;;;;;;30.40;13.60;;;6.30;99.90;;;;;;4165966;28;20434;-74
2023/12/18 10:25:45;;;;;;;26.05;14.93;;;6.30;99.90;;;;;;4162183;28;20025;-74